createdAt,value
2023-05-13T00:01:38.970Z,100.00
2023-05-13T00:04:06.904Z,100.00
2023-05-13T00:06:33.715Z,100.00
2023-05-13T00:09:00.813Z,100.00
2023-05-13T00:11:27.728Z,100.00
2023-05-13T00:13:54.657Z,100.00
2023-05-13T00:16:24.356Z,100.00
2023-05-13T00:18:51.731Z,100.00
2023-05-13T00:21:18.539Z,100.00
2023-05-13T00:23:45.162Z,100.00
2023-05-13T00:26:11.693Z,100.00
2023-05-13T00:28:38.478Z,100.00
2023-05-13T00:31:05.088Z,100.00
2023-05-13T00:33:31.864Z,100.00
2023-05-13T00:35:58.482Z,100.00
2023-05-13T00:38:25.009Z,100.00
2023-05-13T00:40:51.608Z,100.00
2023-05-13T00:43:18.157Z,100.00
2023-05-13T00:45:44.761Z,100.00
2023-05-13T00:48:11.754Z,100.00
2023-05-13T00:53:12.942Z,100.00
2023-05-13T00:55:44.210Z,100.00
2023-05-13T00:58:11.663Z,100.00
2023-05-13T01:00:47.992Z,100.00
2023-05-13T01:03:27.309Z,100.00
2023-05-13T01:06:07.804Z,100.00
2023-05-13T01:08:58.627Z,100.00
2023-05-13T01:11:30.184Z,100.00
2023-05-13T01:14:06.705Z,100.00
2023-05-13T01:16:40.999Z,100.00
2023-05-13T01:19:26.388Z,100.00
2023-05-13T01:21:53.841Z,100.00
2023-05-13T01:24:20.575Z,100.00
2023-05-13T01:26:47.737Z,100.00
2023-05-13T01:29:14.527Z,100.00
2023-05-13T01:31:42.760Z,100.00
2023-05-13T01:34:11.567Z,100.00
2023-05-13T01:36:40.063Z,100.00
2023-05-13T01:39:08.496Z,100.00
2023-05-13T01:41:35.299Z,100.00
2023-05-13T01:44:04.794Z,100.00
2023-05-13T01:46:31.475Z,100.00
2023-05-13T01:48:59.229Z,100.00
2023-05-13T01:51:25.938Z,100.00
2023-05-13T01:53:52.551Z,100.00
2023-05-13T01:56:19.098Z,100.00
2023-05-13T01:58:46.220Z,100.00
2023-05-13T02:01:12.761Z,100.00
2023-05-13T02:03:39.505Z,100.00
2023-05-13T02:06:06.486Z,100.00
2023-05-13T02:08:33.125Z,100.00
2023-05-13T02:11:00.752Z,100.00
2023-05-13T02:13:27.391Z,100.00
2023-05-13T02:15:54.704Z,100.00
2023-05-13T02:18:22.404Z,100.00
2023-05-13T02:20:49.241Z,100.00
2023-05-13T02:23:16.897Z,100.00
2023-05-13T02:25:44.109Z,100.00
2023-05-13T02:28:11.056Z,100.00
2023-05-13T02:30:37.703Z,100.00
2023-05-13T02:33:04.348Z,100.00
2023-05-13T02:35:31.062Z,100.00
2023-05-13T02:37:58.428Z,100.00
2023-05-13T02:40:25.008Z,100.00
2023-05-13T02:42:51.669Z,100.00
2023-05-13T02:45:18.694Z,100.00
2023-05-13T02:47:45.301Z,100.00
2023-05-13T02:50:12.690Z,100.00
2023-05-13T02:52:40.218Z,100.00
2023-05-13T02:55:07.825Z,100.00
2023-05-13T02:57:34.727Z,100.00
2023-05-13T03:00:01.624Z,100.00
2023-05-13T03:02:28.473Z,100.00
2023-05-13T03:04:55.770Z,100.00
2023-05-13T03:07:22.860Z,100.00
2023-05-13T03:09:49.488Z,100.00
2023-05-13T03:12:16.289Z,100.00
2023-05-13T03:14:44.473Z,100.00
2023-05-13T03:17:11.474Z,100.00
2023-05-13T03:19:39.316Z,100.00
2023-05-13T03:22:06.640Z,100.00
2023-05-13T03:24:33.360Z,100.00
2023-05-13T03:27:00.327Z,100.00
2023-05-13T03:29:26.925Z,100.00
2023-05-13T03:31:54.349Z,100.00
2023-05-13T03:34:21.062Z,100.00
2023-05-13T03:36:47.689Z,100.00
2023-05-13T03:39:14.251Z,100.00
2023-05-13T03:41:41.051Z,100.00
2023-05-13T03:44:07.709Z,100.00
2023-05-13T03:46:34.372Z,100.00
2023-05-13T03:49:01.013Z,100.00
2023-05-13T03:51:27.795Z,100.00
2023-05-13T03:53:54.363Z,100.00
2023-05-13T03:56:21.776Z,100.00
2023-05-13T03:58:48.443Z,100.00
2023-05-13T04:01:15.016Z,100.00
2023-05-13T04:03:44.396Z,100.00
2023-05-13T04:06:11.132Z,100.00
2023-05-13T04:08:37.728Z,100.00
2023-05-13T04:11:04.452Z,100.00
2023-05-13T04:13:31.047Z,100.00
2023-05-13T04:15:58.236Z,100.00
2023-05-13T04:18:24.851Z,100.00
2023-05-13T04:20:51.440Z,100.00
2023-05-13T04:23:18.066Z,100.00
2023-05-13T04:25:50.910Z,100.00
2023-05-13T04:28:18.391Z,100.00
2023-05-13T04:30:45.329Z,100.00
2023-05-13T04:33:12.127Z,100.00
2023-05-13T04:35:39.043Z,100.00
2023-05-13T04:38:05.915Z,100.00
2023-05-13T04:40:32.591Z,100.00
2023-05-13T04:42:59.175Z,100.00
2023-05-13T04:45:25.770Z,100.00
2023-05-13T04:47:52.341Z,100.00
2023-05-13T04:50:19.143Z,100.00
2023-05-13T04:52:47.441Z,100.00
2023-05-13T04:55:14.194Z,100.00
2023-05-13T04:57:40.913Z,100.00
2023-05-13T05:00:09.604Z,100.00
2023-05-13T05:02:36.285Z,100.00
2023-05-13T05:05:03.498Z,100.00
2023-05-13T05:07:30.109Z,100.00
2023-05-13T05:09:56.835Z,100.00
2023-05-13T05:12:23.560Z,100.00
2023-05-13T05:14:50.114Z,100.00
2023-05-13T05:17:16.722Z,100.00
2023-05-13T05:19:43.447Z,100.00
2023-05-13T05:22:10.064Z,100.00
2023-05-13T05:24:36.761Z,100.00
2023-05-13T05:27:03.480Z,100.00
2023-05-13T05:29:30.024Z,100.00
2023-05-13T05:31:56.669Z,100.00
2023-05-13T05:34:23.377Z,100.00
2023-05-13T05:36:50.028Z,100.00
2023-05-13T05:39:16.583Z,100.00
2023-05-13T05:41:43.160Z,100.00
2023-05-13T05:44:09.756Z,100.00
2023-05-13T05:46:36.353Z,100.00
2023-05-13T05:49:03.850Z,100.00
2023-05-13T05:51:30.576Z,100.00
2023-05-13T05:53:57.114Z,100.00
2023-05-13T05:56:23.704Z,100.00
2023-05-13T05:58:50.288Z,100.00
2023-05-13T06:01:16.866Z,100.00
2023-05-13T06:03:43.655Z,100.00
2023-05-13T06:06:10.429Z,100.00
2023-05-13T06:08:37.054Z,100.00
2023-05-13T06:11:03.618Z,100.00
2023-05-13T06:13:30.262Z,100.00
2023-05-13T06:15:57.017Z,100.00
2023-05-13T06:18:23.753Z,100.00
2023-05-13T06:20:50.381Z,100.00
2023-05-13T06:23:17.027Z,100.00
2023-05-13T06:25:43.675Z,100.00
2023-05-13T06:28:11.366Z,100.00
2023-05-13T06:30:38.813Z,100.00
2023-05-13T06:33:05.645Z,100.00
2023-05-13T06:35:32.260Z,100.00
2023-05-13T06:37:58.819Z,100.00
2023-05-13T06:40:25.495Z,100.00
2023-05-13T06:42:52.084Z,100.00
2023-05-13T06:45:26.046Z,100.00
2023-05-13T06:47:53.605Z,100.00
2023-05-13T06:50:20.805Z,100.00
2023-05-13T06:52:47.597Z,100.00
2023-05-13T06:55:14.283Z,100.00
2023-05-13T06:57:43.476Z,100.00
2023-05-13T07:00:10.851Z,100.00
2023-05-13T07:02:37.773Z,100.00
2023-05-13T07:05:05.146Z,100.00
2023-05-13T07:07:31.773Z,100.00
2023-05-13T07:09:58.406Z,100.00
2023-05-13T07:12:25.182Z,100.00
2023-05-13T07:14:52.031Z,100.00
2023-05-13T07:17:18.656Z,100.00
2023-05-13T07:19:45.254Z,100.00
2023-05-13T07:22:12.003Z,100.00
2023-05-13T07:24:38.948Z,100.00
2023-05-13T07:27:06.081Z,100.00
2023-05-13T07:29:33.397Z,100.00
2023-05-13T07:32:05.487Z,100.00
2023-05-13T07:34:32.696Z,100.00
2023-05-13T07:36:59.347Z,100.00
2023-05-13T07:39:26.773Z,100.00
2023-05-13T07:41:53.718Z,100.00
2023-05-13T07:44:20.300Z,100.00
2023-05-13T07:46:46.924Z,100.00
2023-05-13T07:49:13.750Z,100.00
2023-05-13T07:51:40.593Z,98.45
2023-05-13T07:54:07.171Z,100.00
2023-05-13T07:56:33.887Z,100.00
2023-05-13T07:59:00.561Z,100.00
2023-05-13T08:01:27.421Z,98.92
2023-05-13T08:03:54.255Z,95.63
2023-05-13T08:06:21.114Z,93.83
2023-05-13T08:08:47.655Z,92.35
2023-05-13T08:11:14.368Z,91.45
2023-05-13T08:13:40.984Z,91.50
2023-05-13T08:16:07.780Z,94.97
2023-05-13T08:18:34.478Z,89.15
2023-05-13T08:21:01.384Z,88.17
2023-05-13T08:23:40.932Z,89.11
2023-05-13T08:26:11.661Z,81.61
2023-05-13T08:28:38.777Z,81.75
2023-05-13T08:31:05.464Z,82.53
2023-05-13T08:33:32.657Z,82.86
2023-05-13T08:36:01.195Z,81.11
2023-05-13T08:38:27.857Z,75.19
2023-05-13T08:40:54.532Z,77.15
2023-05-13T08:43:24.359Z,82.36
2023-05-13T08:45:53.568Z,78.63
2023-05-13T08:48:20.667Z,79.00
2023-05-13T08:50:48.094Z,77.36
2023-05-13T08:53:17.170Z,73.83
2023-05-13T08:55:43.881Z,77.64
2023-05-13T08:58:10.530Z,71.59
2023-05-13T09:00:37.356Z,70.92
2023-05-13T09:03:04.281Z,71.15
2023-05-13T09:05:32.177Z,67.80
2023-05-13T09:07:59.089Z,70.43
2023-05-13T09:10:25.644Z,71.19
2023-05-13T09:12:56.234Z,72.13
2023-05-13T09:15:25.571Z,68.84
2023-05-13T09:18:01.412Z,73.25
2023-05-13T09:20:28.852Z,68.70
2023-05-13T09:23:04.158Z,71.70
2023-05-13T09:25:31.513Z,73.56
2023-05-13T09:28:00.070Z,71.09
2023-05-13T09:30:31.095Z,72.05
2023-05-13T09:33:12.277Z,67.41
2023-05-13T09:35:41.973Z,63.92
2023-05-13T09:38:31.946Z,63.34
2023-05-13T09:41:00.752Z,67.42
2023-05-13T09:43:32.379Z,65.48
2023-05-13T09:46:05.687Z,64.64
2023-05-13T09:48:34.106Z,63.71
2023-05-13T09:51:01.398Z,65.53
2023-05-13T09:53:28.744Z,63.32
2023-05-13T09:55:57.365Z,58.55
2023-05-13T09:58:25.845Z,59.51
2023-05-13T10:00:52.794Z,60.89
2023-05-13T10:03:19.651Z,61.04
2023-05-13T10:05:50.498Z,60.38
2023-05-13T10:08:18.426Z,64.11
2023-05-13T10:10:47.516Z,55.79
2023-05-13T10:13:16.828Z,56.94
2023-05-13T10:15:55.425Z,61.39
2023-05-13T10:18:24.174Z,56.83
2023-05-13T10:20:53.927Z,59.48
2023-05-13T10:23:21.823Z,55.13
2023-05-13T10:25:49.039Z,55.12
2023-05-13T10:28:16.853Z,53.81
2023-05-13T10:30:44.255Z,44.91
2023-05-13T10:33:11.123Z,46.28
2023-05-13T10:35:42.693Z,43.51
2023-05-13T10:38:16.523Z,44.84
2023-05-13T10:41:09.686Z,43.81
2023-05-13T10:43:37.539Z,38.39
2023-05-13T10:46:11.520Z,36.81
2023-05-13T10:48:51.042Z,37.03
2023-05-13T10:51:24.132Z,34.77
2023-05-13T10:53:53.292Z,34.58
2023-05-13T10:56:22.187Z,30.32
2023-05-13T10:59:01.541Z,26.20
2023-05-13T11:01:35.772Z,24.11
2023-05-13T11:04:05.301Z,22.83
2023-05-13T11:06:37.475Z,24.05
2023-05-13T11:09:15.132Z,24.06
2023-05-13T11:11:42.484Z,23.34
2023-05-13T11:14:16.307Z,23.30
2023-05-13T11:16:47.993Z,23.06
2023-05-13T11:19:23.781Z,24.82
2023-05-13T11:21:53.211Z,23.98
2023-05-13T11:24:21.821Z,25.67
2023-05-13T11:26:54.389Z,25.04
2023-05-13T11:29:29.997Z,26.57
2023-05-13T11:32:00.513Z,28.07
2023-05-13T11:34:28.362Z,28.98
2023-05-13T11:37:03.775Z,27.93
2023-05-13T11:39:30.818Z,27.30
2023-05-13T11:41:57.725Z,26.27
2023-05-13T11:44:25.672Z,26.46
2023-05-13T11:46:57.447Z,27.43
2023-05-13T11:49:44.312Z,27.49
2023-05-13T11:52:15.431Z,28.04
2023-05-13T11:54:47.676Z,30.07
2023-05-13T11:57:24.164Z,31.45
2023-05-13T11:59:55.868Z,31.36
2023-05-13T12:02:30.786Z,30.84
2023-05-13T12:05:04.551Z,31.37
2023-05-13T12:07:32.052Z,31.04
2023-05-13T12:10:00.766Z,31.23
2023-05-13T12:12:29.313Z,31.74
2023-05-13T12:14:59.792Z,31.08
2023-05-13T12:17:26.743Z,29.33
2023-05-13T12:20:08.829Z,27.52
2023-05-13T12:22:36.568Z,25.36
2023-05-13T12:25:35.169Z,22.63
2023-05-13T12:28:14.289Z,21.53
2023-05-13T12:30:52.692Z,20.93
2023-05-13T12:33:27.198Z,20.83
2023-05-13T12:36:14.770Z,19.00
2023-05-13T12:39:00.050Z,16.76
2023-05-13T12:41:51.984Z,15.27
2023-05-13T12:44:18.797Z,13.16
2023-05-13T12:46:57.378Z,12.48
2023-05-13T12:49:24.272Z,13.33
2023-05-13T12:51:52.269Z,14.93
2023-05-13T12:54:19.178Z,16.27
2023-05-13T12:56:46.061Z,18.29
2023-05-13T12:59:14.696Z,19.24
2023-05-13T13:01:42.990Z,18.05
2023-05-13T13:04:09.889Z,15.38
2023-05-13T13:06:36.666Z,13.83
2023-05-13T13:09:03.447Z,12.59
2023-05-13T13:11:30.146Z,11.62
2023-05-13T13:13:56.735Z,10.04
2023-05-13T13:16:23.654Z,10.62
2023-05-13T13:18:53.442Z,10.71
2023-05-13T13:21:22.237Z,10.47
2023-05-13T13:23:48.851Z,9.74
2023-05-13T13:26:15.406Z,10.22
2023-05-13T13:28:44.352Z,9.54
2023-05-13T13:31:12.214Z,9.20
2023-05-13T13:33:39.063Z,9.71
2023-05-13T13:36:06.096Z,9.25
2023-05-13T13:38:32.829Z,9.61
2023-05-13T13:40:59.410Z,8.83
2023-05-13T13:43:25.977Z,8.69
2023-05-13T13:45:52.727Z,8.60
2023-05-13T13:48:19.427Z,9.51
2023-05-13T13:50:47.761Z,9.40
2023-05-13T13:55:48.737Z,11.99
2023-05-13T13:58:15.922Z,11.64
2023-05-13T14:00:42.576Z,10.84
2023-05-13T14:03:09.369Z,10.54
2023-05-13T14:05:36.092Z,10.11
2023-05-13T14:08:02.757Z,10.07
2023-05-13T14:10:29.499Z,9.65
2023-05-13T14:12:56.143Z,8.84
2023-05-13T14:15:24.422Z,8.96
2023-05-13T14:17:51.056Z,8.63
2023-05-13T14:20:17.769Z,8.93
2023-05-13T14:22:44.400Z,9.92
2023-05-13T14:25:11.037Z,8.87
2023-05-13T14:27:37.642Z,9.91
2023-05-13T14:30:05.539Z,9.39
2023-05-13T14:32:32.945Z,8.74
2023-05-13T14:34:59.607Z,8.73
2023-05-13T14:37:26.351Z,9.30
2023-05-13T14:39:53.029Z,8.45
2023-05-13T14:42:19.629Z,8.73
2023-05-13T14:44:46.301Z,9.29
2023-05-13T14:47:13.100Z,9.06
2023-05-13T14:49:39.636Z,8.97
2023-05-13T14:52:06.341Z,8.83
2023-05-13T14:54:35.839Z,8.68
2023-05-13T14:57:07.058Z,9.53
2023-05-13T14:59:34.106Z,11.04
2023-05-13T15:02:02.703Z,11.91
2023-05-13T15:04:29.475Z,10.60
2023-05-13T15:06:56.847Z,10.53
2023-05-13T15:09:23.877Z,9.98
2023-05-13T15:11:50.728Z,9.04
2023-05-13T15:14:18.817Z,9.40
2023-05-13T15:16:51.160Z,8.73
2023-05-13T15:19:18.815Z,9.38
2023-05-13T15:21:45.849Z,10.06
2023-05-13T15:24:15.402Z,8.57
2023-05-13T15:26:43.329Z,8.71
2023-05-13T15:29:09.969Z,9.47
2023-05-13T15:31:36.554Z,9.05
2023-05-13T15:34:03.410Z,9.68
2023-05-13T15:36:29.961Z,9.95
2023-05-13T15:38:56.567Z,11.13
2023-05-13T15:41:23.111Z,10.69
2023-05-13T15:43:49.733Z,10.09
2023-05-13T15:46:16.652Z,9.88
2023-05-13T15:48:43.365Z,10.52
2023-05-13T15:51:09.934Z,10.16
2023-05-13T15:53:36.510Z,10.33
2023-05-13T15:56:03.161Z,10.30
2023-05-13T15:58:29.797Z,10.61
2023-05-13T16:00:56.372Z,11.05
2023-05-13T16:03:22.995Z,9.82
2023-05-13T16:05:49.706Z,10.44
2023-05-13T16:08:16.494Z,10.83
2023-05-13T16:10:43.271Z,10.42
2023-05-13T16:13:09.870Z,10.58
2023-05-13T16:15:36.551Z,10.20
2023-05-13T16:18:03.742Z,11.98
2023-05-13T16:20:30.443Z,11.76
2023-05-13T16:22:57.037Z,12.15
2023-05-13T16:25:24.861Z,12.33
2023-05-13T16:27:51.901Z,12.80
2023-05-13T16:30:18.496Z,13.95
2023-05-13T16:32:47.792Z,15.22
2023-05-13T16:35:14.684Z,16.65
2023-05-13T16:37:41.400Z,16.76
2023-05-13T16:40:08.720Z,16.81
2023-05-13T16:42:35.289Z,17.68
2023-05-13T16:45:01.969Z,17.91
2023-05-13T16:47:28.836Z,18.93
2023-05-13T16:49:56.389Z,20.02
2023-05-13T16:52:24.050Z,20.05
2023-05-13T16:54:50.854Z,20.25
2023-05-13T16:57:19.374Z,21.16
2023-05-13T16:59:46.038Z,21.31
2023-05-13T17:02:12.803Z,22.24
2023-05-13T17:04:39.434Z,21.93
2023-05-13T17:07:06.890Z,22.32
2023-05-13T17:09:33.906Z,23.23
2023-05-13T17:12:00.575Z,22.81
2023-05-13T17:14:27.367Z,23.21
2023-05-13T17:16:54.084Z,22.81
2023-05-13T17:19:20.914Z,24.14
2023-05-13T17:21:47.580Z,24.81
2023-05-13T17:24:14.133Z,24.12
2023-05-13T17:26:41.195Z,23.96
2023-05-13T17:29:07.933Z,23.81
2023-05-13T17:31:34.513Z,24.12
2023-05-13T17:34:01.133Z,24.33
2023-05-13T17:36:27.849Z,24.80
2023-05-13T17:38:54.465Z,23.80
2023-05-13T17:41:21.916Z,24.96
2023-05-13T17:43:48.591Z,25.48
2023-05-13T17:46:15.308Z,26.22
2023-05-13T17:48:42.516Z,27.54
2023-05-13T17:51:09.379Z,27.20
2023-05-13T17:53:35.978Z,26.75
2023-05-13T17:56:02.678Z,26.85
2023-05-13T17:58:29.310Z,27.52
2023-05-13T18:00:56.078Z,29.36
2023-05-13T18:03:22.769Z,30.15
2023-05-13T18:05:49.532Z,32.09
2023-05-13T18:08:16.264Z,34.25
2023-05-13T18:10:43.654Z,36.76
2023-05-13T18:13:11.150Z,37.69
2023-05-13T18:15:37.922Z,39.31
2023-05-13T18:18:04.732Z,42.62
2023-05-13T18:20:32.996Z,43.62
2023-05-13T18:23:00.045Z,47.16
2023-05-13T18:25:26.732Z,48.04
2023-05-13T18:27:54.447Z,50.73
2023-05-13T18:30:21.385Z,53.28
2023-05-13T18:32:48.365Z,56.50
2023-05-13T18:35:16.202Z,57.22
2023-05-13T18:37:42.886Z,57.61
2023-05-13T18:40:10.004Z,59.24
2023-05-13T18:42:36.777Z,59.79
2023-05-13T18:45:03.582Z,62.35
2023-05-13T18:47:30.145Z,61.71
2023-05-13T18:49:56.711Z,63.65
2023-05-13T18:52:23.318Z,64.01
2023-05-13T18:54:49.905Z,62.70
2023-05-13T18:57:16.941Z,64.25
2023-05-13T18:59:43.619Z,65.13
2023-05-13T19:02:10.515Z,64.94
2023-05-13T19:04:37.177Z,66.74
2023-05-13T19:07:03.754Z,65.52
2023-05-13T19:09:30.521Z,68.54
2023-05-13T19:11:57.193Z,67.75
2023-05-13T19:14:23.760Z,69.19
2023-05-13T19:16:50.407Z,68.73
2023-05-13T19:19:17.176Z,70.11
2023-05-13T19:21:43.810Z,70.66
2023-05-13T19:24:10.437Z,71.27
2023-05-13T19:26:37.166Z,71.51
2023-05-13T19:29:03.886Z,72.93
2023-05-13T19:31:31.607Z,71.42
2023-05-13T19:33:58.471Z,70.83
2023-05-13T19:36:26.525Z,72.88
2023-05-13T19:38:53.756Z,74.10
2023-05-13T19:41:20.476Z,74.60
2023-05-13T19:43:47.125Z,74.92
2023-05-13T19:46:13.791Z,76.74
2023-05-13T19:48:40.620Z,77.27
2023-05-13T19:51:07.306Z,76.94
2023-05-13T19:53:33.949Z,77.81
2023-05-13T19:56:01.361Z,80.18
2023-05-13T19:58:28.568Z,80.46
2023-05-13T20:00:56.073Z,80.84
2023-05-13T20:03:22.949Z,81.37
2023-05-13T20:05:50.769Z,82.94
2023-05-13T20:08:17.482Z,83.73
2023-05-13T20:10:44.170Z,84.84
2023-05-13T20:13:10.930Z,85.45
2023-05-13T20:15:37.657Z,86.53
2023-05-13T20:18:04.371Z,87.57
2023-05-13T20:20:31.006Z,88.66
2023-05-13T20:22:57.553Z,90.41
2023-05-13T20:25:24.184Z,89.58
2023-05-13T20:27:50.821Z,90.80
2023-05-13T20:30:17.564Z,92.65
2023-05-13T20:32:44.272Z,93.48
2023-05-13T20:35:10.929Z,95.68
2023-05-13T20:37:37.523Z,95.21
2023-05-13T20:40:04.729Z,96.97
2023-05-13T20:42:32.089Z,96.48
2023-05-13T20:44:58.652Z,98.42
2023-05-13T20:47:25.273Z,99.08
2023-05-13T20:49:51.860Z,100.00
2023-05-13T20:52:18.446Z,100.00
2023-05-13T20:54:45.038Z,100.00
2023-05-13T20:57:11.649Z,100.00
2023-05-13T20:59:38.266Z,100.00
2023-05-13T21:02:05.072Z,100.00
2023-05-13T21:04:31.736Z,100.00
2023-05-13T21:06:58.418Z,100.00
2023-05-13T21:09:25.127Z,100.00
2023-05-13T21:11:51.693Z,100.00
2023-05-13T21:14:18.336Z,100.00
2023-05-13T21:16:44.944Z,100.00
2023-05-13T21:19:22.888Z,100.00
2023-05-13T21:21:50.216Z,100.00
2023-05-13T21:24:18.403Z,100.00
2023-05-13T21:26:45.803Z,100.00
2023-05-13T21:29:12.518Z,100.00
2023-05-13T21:31:39.323Z,100.00
2023-05-13T21:34:06.029Z,100.00
2023-05-13T21:36:33.979Z,100.00
2023-05-13T21:39:00.702Z,100.00
2023-05-13T21:41:27.493Z,100.00
2023-05-13T21:43:54.253Z,100.00
2023-05-13T21:46:20.933Z,100.00
2023-05-13T21:48:48.233Z,100.00
2023-05-13T21:51:14.965Z,100.00
2023-05-13T21:53:41.552Z,100.00
2023-05-13T21:56:08.175Z,100.00
2023-05-13T21:58:34.901Z,100.00
2023-05-13T22:01:01.960Z,100.00
2023-05-13T22:03:28.648Z,100.00
2023-05-13T22:08:47.483Z,100.00
2023-05-13T22:11:14.899Z,100.00
2023-05-13T22:13:41.493Z,100.00
2023-05-13T22:16:08.449Z,100.00
2023-05-13T22:18:35.369Z,100.00
2023-05-13T22:21:02.152Z,100.00
2023-05-13T22:23:28.681Z,100.00
2023-05-13T22:25:55.224Z,100.00
2023-05-13T22:28:21.814Z,100.00
2023-05-13T22:30:51.715Z,100.00
2023-05-13T22:33:19.787Z,100.00
2023-05-13T22:35:47.786Z,100.00
2023-05-13T22:38:14.645Z,100.00
2023-05-13T22:40:50.717Z,100.00
2023-05-13T22:43:18.004Z,100.00
2023-05-13T22:45:51.799Z,100.00
2023-05-13T22:48:18.594Z,100.00
2023-05-13T22:50:48.069Z,100.00
2023-05-13T22:53:20.273Z,100.00
2023-05-13T22:55:47.234Z,100.00
2023-05-13T22:58:17.452Z,100.00
2023-05-13T23:00:51.192Z,100.00
2023-05-13T23:03:21.300Z,100.00
2023-05-13T23:05:47.890Z,100.00
2023-05-13T23:08:14.648Z,100.00
2023-05-13T23:10:41.291Z,100.00
2023-05-13T23:13:07.920Z,100.00
2023-05-13T23:15:37.139Z,100.00
2023-05-13T23:18:03.859Z,100.00
2023-05-13T23:20:30.673Z,100.00
2023-05-13T23:22:57.280Z,100.00
2023-05-13T23:25:23.860Z,100.00
2023-05-13T23:27:51.462Z,100.00
2023-05-13T23:30:18.284Z,100.00
2023-05-13T23:32:45.090Z,100.00
2023-05-13T23:35:12.691Z,100.00
2023-05-13T23:37:39.279Z,100.00
2023-05-13T23:40:06.814Z,100.00
2023-05-13T23:42:33.429Z,100.00
2023-05-13T23:44:59.972Z,100.00
2023-05-13T23:47:26.546Z,100.00
2023-05-13T23:49:53.130Z,100.00
2023-05-13T23:52:19.740Z,100.00
2023-05-13T23:54:46.370Z,100.00
2023-05-13T23:57:12.926Z,100.00
2023-05-13T23:59:39.525Z,100.00
